Time;durP1;ratioP1;P1;durP2;ratioP2;P2;SDS_P1;SDS_P2;PMS_P1;PMS_P2;Temp;Humidity;BMP_temperature;BMP_pressure;BME280_temperature;BME280_humidity;BME280_pressure;Samples;Min_cycle;Max_cycle;Signal;HPM_P1;HPM_P2
2022/03/14 00:01:58;;;;;;;;;;;7.60;94.10;;;;;;5092575;28;19924;-59
2022/03/14 00:04:24;;;;;;;;;;;7.50;94.20;;;;;;5092936;28;19950;-59
2022/03/14 00:06:51;;;;;;;;;;;7.60;94.70;;;;;;5092011;28;19963;-59
2022/03/14 00:09:17;;;;;;;;;;;7.60;95.20;;;;;;5092120;28;19931;-59
2022/03/14 00:11:43;;;;;;;;;;;7.50;95.10;;;;;;5105659;28;19924;-59
2022/03/14 00:14:09;;;;;;;;;;;7.60;95.00;;;;;;5112616;28;20267;-59
2022/03/14 00:16:41;;;;;;;;;;;7.60;94.80;;;;;;5108774;28;19935;-59
2022/03/14 00:19:07;;;;;;;;;;;7.50;94.70;;;;;;5096597;28;19932;-59
2022/03/14 00:21:35;;;;;;;;;;;7.50;95.30;;;;;;5095868;28;19928;-59
2022/03/14 00:24:01;;;;;;;;;;;7.50;96.10;;;;;;5095002;28;19924;-59
2022/03/14 00:26:27;;;;;;;;;;;7.60;96.00;;;;;;5095813;28;19978;-59
2022/03/14 00:28:53;;;;;;;;;;;7.60;96.30;;;;;;5093970;28;19931;-59
2022/03/14 00:31:20;;;;;;;;;;;7.60;96.70;;;;;;5095999;28;19924;-59
2022/03/14 00:33:45;;;;;;;;;;;7.60;96.80;;;;;;5095896;28;19975;-59
2022/03/14 00:36:11;;;;;;;;;;;7.60;97.30;;;;;;5095391;28;19963;-59
2022/03/14 00:38:38;;;;;;;;;;;7.60;96.90;;;;;;5095571;28;19920;-59
2022/03/14 00:41:04;;;;;;;;;;;7.60;97.40;;;;;;5095845;28;19930;-59
2022/03/14 00:43:30;;;;;;;;;;;7.60;97.60;;;;;;5093650;28;20636;-59
2022/03/14 00:45:56;;;;;;;;;;;7.60;97.80;;;;;;5095542;28;19928;-59
2022/03/14 00:48:22;;;;;;;;;;;7.50;97.80;;;;;;5094883;28;19928;-59
2022/03/14 00:50:49;;;;;;;;;;;7.60;98.00;;;;;;5096110;28;19924;-59
2022/03/14 00:53:15;;;;;;;;;;;7.50;98.30;;;;;;5094920;28;20373;-59
2022/03/14 00:55:40;;;;;;;;;;;7.50;98.80;;;;;;5095477;28;20026;-59
2022/03/14 00:58:07;;;;;;;;;;;7.50;98.70;;;;;;5095845;28;19924;-59
2022/03/14 01:00:33;;;;;;;;;;;7.40;98.90;;;;;;5093837;28;19931;-59
2022/03/14 01:02:59;;;;;;;;;;;7.40;98.90;;;;;;5094987;28;19924;-59
2022/03/14 01:05:26;;;;;;;;;;;7.40;98.80;;;;;;5095818;28;19928;-59
2022/03/14 01:07:51;;;;;;;;;;;7.30;98.90;;;;;;5093521;28;19950;-58
2022/03/14 01:10:17;;;;;;;;;;;7.30;98.70;;;;;;5096030;28;19945;-59
2022/03/14 01:12:43;;;;;;;;;;;7.30;98.90;;;;;;5116105;28;20365;-59
2022/03/14 01:15:09;;;;;;;;;;;7.40;99.90;;;;;;5115746;28;19969;-59
2022/03/14 01:17:36;;;;;;;;;;;7.50;99.40;;;;;;5114764;28;20445;-59
2022/03/14 01:20:02;;;;;;;;;;;7.50;99.40;;;;;;5094307;28;19927;-59
2022/03/14 01:22:28;;;;;;;;;;;7.50;99.40;;;;;;5095495;28;20297;-59
2022/03/14 01:24:54;;;;;;;;;;;7.40;99.80;;;;;;5093876;28;19928;-59
2022/03/14 01:27:19;;;;;;;;;;;7.50;99.80;;;;;;5094813;28;19924;-59
2022/03/14 01:29:45;;;;;;;;;;;7.40;99.90;;;;;;5094904;28;19924;-59
2022/03/14 01:32:11;;;;;;;;;;;7.30;99.90;;;;;;5093788;28;19931;-59
2022/03/14 01:34:36;;;;;;;;;;;7.20;99.90;;;;;;5093685;28;19928;-59
2022/03/14 01:37:03;;;;;;;;;;;7.20;99.90;;;;;;5094889;28;19924;-59
2022/03/14 01:39:28;;;;;;;;;;;7.10;99.90;;;;;;5093445;28;20014;-59
2022/03/14 01:41:56;;;;;;;;;;;7.00;99.90;;;;;;5095010;28;20036;-59
2022/03/14 01:44:21;;;;;;;;;;;6.90;99.90;;;;;;5094733;28;19924;-59
2022/03/14 01:46:47;;;;;;;;;;;6.70;99.90;;;;;;5093716;28;19924;-59
2022/03/14 01:49:14;;;;;;;;;;;6.60;99.90;;;;;;5094491;28;19969;-59
2022/03/14 01:51:40;;;;;;;;;;;6.50;99.90;;;;;;5093676;28;20449;-59
2022/03/14 01:54:07;;;;;;;;;;;6.30;99.90;;;;;;5091628;28;19924;-59
2022/03/14 01:56:34;;;;;;;;;;;6.30;99.90;;;;;;5094730;28;20042;-59
2022/03/14 01:59:00;;;;;;;;;;;6.30;99.90;;;;;;5109760;28;19925;-59
2022/03/14 02:01:25;;;;;;;;;;;6.30;99.90;;;;;;5092650;28;19931;-59
2022/03/14 02:03:51;;;;;;;;;;;6.20;99.90;;;;;;5094257;28;19931;-59
2022/03/14 02:06:17;;;;;;;;;;;6.30;99.90;;;;;;5093595;28;19924;-59
2022/03/14 02:08:44;;;;;;;;;;;6.30;99.90;;;;;;5093384;28;19930;-59
2022/03/14 02:11:10;;;;;;;;;;;6.30;99.90;;;;;;5098541;28;20390;-59
2022/03/14 02:13:35;;;;;;;;;;;6.20;99.90;;;;;;5093619;28;19946;-59
2022/03/14 02:16:01;;;;;;;;;;;6.20;99.90;;;;;;5093932;28;19936;-59
2022/03/14 02:18:27;;;;;;;;;;;6.20;99.90;;;;;;5093079;28;19967;-59
2022/03/14 02:20:53;;;;;;;;;;;6.20;99.90;;;;;;5093233;28;19927;-59
2022/03/14 02:23:18;;;;;;;;;;;6.20;99.90;;;;;;5093882;28;19928;-59
2022/03/14 02:25:49;;;;;;;;;;;6.30;99.90;;;;;;5092361;28;19928;-59
2022/03/14 02:28:16;;;;;;;;;;;6.20;99.90;;;;;;5092959;28;20370;-59
2022/03/14 02:30:42;;;;;;;;;;;6.20;99.90;;;;;;5093414;28;19924;-59
2022/03/14 02:33:08;;;;;;;;;;;6.20;99.90;;;;;;5094058;28;19930;-59
2022/03/14 02:35:36;;;;;;;;;;;6.10;99.90;;;;;;5092970;28;19989;-59
2022/03/14 02:38:01;;;;;;;;;;;6.10;99.90;;;;;;5091343;28;19931;-59
2022/03/14 02:40:27;;;;;;;;;;;6.10;99.90;;;;;;5093983;28;19920;-59
2022/03/14 02:42:53;;;;;;;;;;;6.10;99.90;;;;;;5092016;28;19931;-59
2022/03/14 02:45:19;;;;;;;;;;;6.10;99.90;;;;;;5092953;28;19920;-59
2022/03/14 02:47:45;;;;;;;;;;;6.10;99.90;;;;;;5093254;28;19935;-59
2022/03/14 02:50:10;;;;;;;;;;;6.20;99.90;;;;;;5091419;28;20282;-59
2022/03/14 02:52:37;;;;;;;;;;;6.20;99.90;;;;;;5091924;28;19970;-59
2022/03/14 02:55:03;;;;;;;;;;;6.20;99.90;;;;;;5074050;28;19925;-59
2022/03/14 02:57:28;;;;;;;;;;;6.20;99.90;;;;;;5092518;28;19920;-59
2022/03/14 02:59:56;;;;;;;;;;;6.20;99.90;;;;;;5091782;28;20448;-59
2022/03/14 03:02:24;;;;;;;;;;;6.20;99.90;;;;;;5091812;28;19928;-59
2022/03/14 03:04:50;;;;;;;;;;;6.20;99.90;;;;;;5093246;28;20284;-59
2022/03/14 03:07:18;;;;;;;;;;;6.20;99.90;;;;;;5092879;28;19924;-59
2022/03/14 03:09:44;;;;;;;;;;;6.20;99.90;;;;;;5092629;28;19977;-59
2022/03/14 03:12:13;;;;;;;;;;;6.20;99.90;;;;;;5109917;28;20441;-59
2022/03/14 03:14:39;;;;;;;;;;;6.20;99.90;;;;;;5096691;28;19924;-59
2022/03/14 03:17:05;;;;;;;;;;;6.30;99.90;;;;;;5092464;28;20396;-59
2022/03/14 03:19:30;;;;;;;;;;;6.30;99.90;;;;;;5093480;28;20004;-59
2022/03/14 03:21:56;;;;;;;;;;;6.40;99.90;;;;;;5092747;28;19924;-59
2022/03/14 03:24:22;;;;;;;;;;;6.50;99.90;;;;;;5092575;28;19924;-59
2022/03/14 03:26:47;;;;;;;;;;;6.70;99.90;;;;;;5093220;28;20019;-59
2022/03/14 03:29:13;;;;;;;;;;;6.70;99.90;;;;;;5091295;28;19930;-59
2022/03/14 03:31:39;;;;;;;;;;;6.80;99.90;;;;;;5092301;28;20377;-59
2022/03/14 03:34:05;;;;;;;;;;;6.90;99.90;;;;;;5093094;28;19932;-59
2022/03/14 03:36:30;;;;;;;;;;;6.90;99.90;;;;;;5092962;28;19985;-59
2022/03/14 03:38:58;;;;;;;;;;;7.00;99.90;;;;;;5091432;28;19943;-59
2022/03/14 03:41:25;;;;;;;;;;;7.00;99.90;;;;;;5091733;28;19928;-59
2022/03/14 03:43:51;;;;;;;;;;;7.10;99.90;;;;;;5092594;28;19977;-59
2022/03/14 03:46:16;;;;;;;;;;;7.10;99.90;;;;;;5092356;28;19924;-59
2022/03/14 03:48:42;;;;;;;;;;;7.20;99.90;;;;;;5092387;28;20366;-59
2022/03/14 03:51:08;;;;;;;;;;;7.20;99.90;;;;;;5095121;28;19924;-59
2022/03/14 03:53:33;;;;;;;;;;;7.30;99.90;;;;;;5095283;28;20286;-59
2022/03/14 03:55:59;;;;;;;;;;;7.40;99.90;;;;;;5097128;28;19924;-59
2022/03/14 03:58:28;;;;;;;;;;;7.60;99.90;;;;;;5095480;28;20657;-59
2022/03/14 04:00:53;;;;;;;;;;;7.70;99.90;;;;;;5096706;28;19924;-59
2022/03/14 04:03:20;;;;;;;;;;;7.80;99.90;;;;;;5096900;28;19932;-59
2022/03/14 04:05:46;;;;;;;;;;;7.90;99.90;;;;;;5095459;28;19931;-59
2022/03/14 04:08:13;;;;;;;;;;;8.00;99.90;;;;;;5096079;28;20278;-59
2022/03/14 04:10:38;;;;;;;;;;;8.10;99.90;;;;;;5100593;28;19924;-59
2022/03/14 04:13:06;;;;;;;;;;;8.20;99.90;;;;;;5115834;28;20537;-59
2022/03/14 04:15:39;;;;;;;;;;;8.30;99.90;;;;;;5108930;28;19994;-59
2022/03/14 04:18:04;;;;;;;;;;;8.30;99.90;;;;;;5096618;28;19956;-59
2022/03/14 04:20:32;;;;;;;;;;;8.30;99.90;;;;;;5093941;28;19968;-59
2022/03/14 04:22:58;;;;;;;;;;;8.30;99.90;;;;;;5096629;28;19924;-59
2022/03/14 04:25:24;;;;;;;;;;;8.30;99.90;;;;;;5095700;28;19931;-59
2022/03/14 04:27:50;;;;;;;;;;;8.30;99.90;;;;;;5095182;28;19950;-59
2022/03/14 04:30:16;;;;;;;;;;;8.30;99.90;;;;;;5096014;28;19924;-59
2022/03/14 04:32:42;;;;;;;;;;;8.30;99.90;;;;;;5095793;28;20438;-59
2022/03/14 04:35:08;;;;;;;;;;;8.30;99.90;;;;;;5095074;28;19924;-59
2022/03/14 04:37:33;;;;;;;;;;;8.20;99.90;;;;;;5096209;28;19981;-59
2022/03/14 04:39:59;;;;;;;;;;;8.20;99.90;;;;;;5094772;28;19985;-59
2022/03/14 04:42:25;;;;;;;;;;;8.20;99.90;;;;;;5094433;28;19928;-59
2022/03/14 04:44:51;;;;;;;;;;;8.10;99.90;;;;;;5096130;28;19920;-59
2022/03/14 04:47:17;;;;;;;;;;;8.20;99.90;;;;;;5096040;28;20290;-59
2022/03/14 04:49:43;;;;;;;;;;;8.20;99.90;;;;;;5095058;28;19931;-59
2022/03/14 04:52:08;;;;;;;;;;;8.20;99.90;;;;;;5095348;28;19931;-59
2022/03/14 04:54:34;;;;;;;;;;;8.10;99.90;;;;;;5080122;28;19936;-59
2022/03/14 04:57:00;;;;;;;;;;;8.20;99.90;;;;;;5075491;28;19924;-59
2022/03/14 04:59:26;;;;;;;;;;;8.20;99.90;;;;;;5079307;28;19931;-60
2022/03/14 05:01:52;;;;;;;;;;;8.20;99.90;;;;;;5093193;28;20386;-59
2022/03/14 05:04:18;;;;;;;;;;;8.20;99.90;;;;;;5095723;28;19970;-60
2022/03/14 05:06:44;;;;;;;;;;;8.20;99.90;;;;;;5093964;28;19924;-60
2022/03/14 05:09:10;;;;;;;;;;;8.30;99.90;;;;;;5094158;28;20336;-60
2022/03/14 05:11:38;;;;;;;;;;;8.30;99.90;;;;;;5107312;28;19924;-60
2022/03/14 05:14:06;;;;;;;;;;;8.30;99.90;;;;;;5115509;28;19928;-60
2022/03/14 05:16:32;;;;;;;;;;;8.40;99.90;;;;;;5115313;28;19924;-60
2022/03/14 05:18:58;;;;;;;;;;;8.40;99.90;;;;;;5095211;28;20007;-60
2022/03/14 05:21:23;;;;;;;;;;;8.40;99.90;;;;;;5094888;28;19931;-60
2022/03/14 05:23:49;;;;;;;;;;;8.40;99.90;;;;;;5094590;28;19931;-60
2022/03/14 05:26:15;;;;;;;;;;;8.40;99.90;;;;;;5094665;28;20289;-60
2022/03/14 05:28:40;;;;;;;;;;;8.50;99.90;;;;;;5093087;28;20309;-60
2022/03/14 05:31:06;;;;;;;;;;;8.40;99.90;;;;;;5094419;28;20390;-59
2022/03/14 05:33:31;;;;;;;;;;;8.50;99.90;;;;;;5095315;28;19928;-59
2022/03/14 05:35:58;;;;;;;;;;;8.40;99.90;;;;;;5094105;28;19924;-60
2022/03/14 05:38:24;;;;;;;;;;;8.40;99.90;;;;;;5094397;28;20295;-60
2022/03/14 05:40:53;;;;;;;;;;;8.40;99.90;;;;;;5094865;28;19923;-60
2022/03/14 05:43:20;;;;;;;;;;;8.40;99.90;;;;;;5092739;28;20302;-59
2022/03/14 05:45:46;;;;;;;;;;;8.30;99.90;;;;;;5094211;28;20324;-60
2022/03/14 05:48:11;;;;;;;;;;;8.30;99.90;;;;;;5094699;28;19924;-60
2022/03/14 05:50:37;;;;;;;;;;;8.30;99.90;;;;;;5076176;28;19978;-60
2022/03/14 05:53:03;;;;;;;;;;;8.40;99.90;;;;;;5091305;28;20359;-60
2022/03/14 05:55:29;;;;;;;;;;;8.30;99.90;;;;;;5074248;28;19986;-60
2022/03/14 05:57:54;;;;;;;;;;;8.30;99.90;;;;;;5073283;28;19933;-60
2022/03/14 06:00:24;;;;;;;;;;;8.30;99.90;;;;;;5074322;28;19920;-60
2022/03/14 06:02:52;;;;;;;;;;;8.30;99.90;;;;;;5090097;28;19924;-60
2022/03/14 06:05:18;;;;;;;;;;;8.40;99.90;;;;;;5091763;28;20289;-60
2022/03/14 06:07:44;;;;;;;;;;;8.40;99.90;;;;;;5094150;28;19924;-60
2022/03/14 06:10:10;;;;;;;;;;;8.40;99.90;;;;;;5094921;28;19930;-60
2022/03/14 06:12:36;;;;;;;;;;;8.40;99.90;;;;;;5112900;28;19928;-60
2022/03/14 06:15:03;;;;;;;;;;;8.40;99.90;;;;;;5114815;28;19927;-60
2022/03/14 06:17:29;;;;;;;;;;;8.40;99.90;;;;;;5114642;28;19924;-60
2022/03/14 06:19:54;;;;;;;;;;;8.40;99.90;;;;;;5101418;28;20384;-60
2022/03/14 06:22:21;;;;;;;;;;;8.40;99.90;;;;;;5094401;28;20409;-60
2022/03/14 06:24:48;;;;;;;;;;;8.30;99.90;;;;;;5092466;28;19994;-60
2022/03/14 06:27:14;;;;;;;;;;;8.40;99.90;;;;;;5093155;28;19924;-60
2022/03/14 06:29:40;;;;;;;;;;;8.40;99.90;;;;;;5092103;28;19926;-60
2022/03/14 06:32:05;;;;;;;;;;;8.40;99.90;;;;;;5092892;28;19973;-60
2022/03/14 06:34:33;;;;;;;;;;;8.40;99.90;;;;;;5092745;28;20493;-60
2022/03/14 06:36:59;;;;;;;;;;;8.40;99.90;;;;;;5093413;28;19930;-60
2022/03/14 06:39:25;;;;;;;;;;;8.50;99.90;;;;;;5092850;28;19928;-60
2022/03/14 06:41:51;;;;;;;;;;;8.40;99.90;;;;;;5084754;28;19974;-60
2022/03/14 06:44:18;;;;;;;;;;;8.40;99.90;;;;;;5094029;28;19939;-60
2022/03/14 06:46:44;;;;;;;;;;;8.40;99.90;;;;;;5093271;28;19924;-60
2022/03/14 06:49:14;;;;;;;;;;;8.40;99.90;;;;;;5092110;28;19931;-60
2022/03/14 06:51:42;;;;;;;;;;;8.40;99.90;;;;;;5092296;28;19979;-60
2022/03/14 06:54:09;;;;;;;;;;;8.40;99.90;;;;;;5092569;28;20286;-60
2022/03/14 06:56:38;;;;;;;;;;;8.40;99.90;;;;;;5093350;28;19924;-60
2022/03/14 06:59:04;;;;;;;;;;;8.30;99.90;;;;;;5092238;28;19924;-60
2022/03/14 07:01:30;;;;;;;;;;;8.40;99.90;;;;;;5091611;28;19924;-60
2022/03/14 07:03:56;;;;;;;;;;;8.40;99.90;;;;;;5089568;28;19925;-60
2022/03/14 07:06:22;;;;;;;;;;;8.30;99.90;;;;;;5080402;28;20290;-60
2022/03/14 07:08:48;;;;;;;;;;;8.20;99.90;;;;;;5070810;28;19925;-60
2022/03/14 07:11:14;;;;;;;;;;;8.30;99.90;;;;;;5085234;28;20039;-60
2022/03/14 07:13:40;;;;;;;;;;;8.20;99.90;;;;;;5091755;28;19931;-60
2022/03/14 07:16:05;;;;;;;;;;;8.20;99.90;;;;;;5092582;28;19931;-60
2022/03/14 07:18:31;;;;;;;;;;;8.20;99.90;;;;;;5093051;28;19924;-60
2022/03/14 07:20:57;;;;;;;;;;;8.20;99.90;;;;;;5093121;28;20417;-60
2022/03/14 07:23:23;;;;;;;;;;;8.20;99.90;;;;;;5091317;28;20003;-60
2022/03/14 07:25:50;;;;;;;;;;;8.20;99.90;;;;;;5083791;28;20438;-60
2022/03/14 07:28:16;;;;;;;;;;;8.10;99.90;;;;;;5085422;28;19969;-60
2022/03/14 07:30:41;;;;;;;;;;;8.20;99.90;;;;;;5089981;28;19928;-60
2022/03/14 07:33:08;;;;;;;;;;;8.10;99.90;;;;;;5093690;28;19921;-60
2022/03/14 07:35:34;;;;;;;;;;;8.10;99.90;;;;;;5087692;28;19931;-61
2022/03/14 07:38:00;;;;;;;;;;;8.10;99.90;;;;;;5095190;28;20015;-60
2022/03/14 07:40:25;;;;;;;;;;;8.10;99.90;;;;;;5087976;28;20042;-60
2022/03/14 07:42:52;;;;;;;;;;;8.10;99.90;;;;;;5088267;28;19932;-60
2022/03/14 07:45:21;;;;;;;;;;;8.10;99.90;;;;;;5086560;28;19951;-60
2022/03/14 07:47:46;;;;;;;;;;;8.00;99.90;;;;;;5085326;28;19931;-61
2022/03/14 07:50:14;;;;;;;;;;;8.00;99.90;;;;;;5090289;28;20294;-60
2022/03/14 07:52:39;;;;;;;;;;;8.00;99.90;;;;;;5082493;28;19924;-61
2022/03/14 07:55:06;;;;;;;;;;;8.00;99.90;;;;;;5085450;28;19935;-60
2022/03/14 07:57:33;;;;;;;;;;;8.00;99.90;;;;;;5096030;28;19924;-60
2022/03/14 07:59:59;;;;;;;;;;;8.00;99.90;;;;;;5096713;28;20433;-60
2022/03/14 08:02:25;;;;;;;;;;;8.00;99.90;;;;;;5078119;28;19932;-60
2022/03/14 08:04:52;;;;;;;;;;;8.00;99.90;;;;;;5095798;28;19924;-60
2022/03/14 08:07:20;;;;;;;;;;;8.00;99.90;;;;;;5096598;28;19924;-61
2022/03/14 08:09:48;;;;;;;;;;;8.00;99.90;;;;;;5075062;28;19924;-61
2022/03/14 08:12:14;;;;;;;;;;;8.00;99.90;;;;;;5111188;28;19946;-60
2022/03/14 08:14:40;;;;;;;;;;;8.00;99.90;;;;;;5098121;28;19925;-60
2022/03/14 08:17:06;;;;;;;;;;;8.00;99.90;;;;;;5075828;28;19978;-60
2022/03/14 08:19:32;;;;;;;;;;;8.00;99.90;;;;;;5080498;28;19935;-61
2022/03/14 08:21:58;;;;;;;;;;;8.10;99.90;;;;;;5086210;28;19968;-61
2022/03/14 08:24:24;;;;;;;;;;;8.00;99.90;;;;;;5096340;28;19960;-61
2022/03/14 08:26:49;;;;;;;;;;;8.10;99.90;;;;;;5090676;28;19985;-61
2022/03/14 08:29:15;;;;;;;;;;;8.00;99.90;;;;;;5094737;28;19928;-61
2022/03/14 08:31:41;;;;;;;;;;;8.10;99.90;;;;;;5086514;28;20421;-60
2022/03/14 08:34:07;;;;;;;;;;;8.00;99.90;;;;;;5091002;28;20034;-61
2022/03/14 08:36:35;;;;;;;;;;;8.10;99.90;;;;;;5078609;28;19933;-60
2022/03/14 08:39:02;;;;;;;;;;;8.10;99.90;;;;;;5075710;28;19932;-60
2022/03/14 08:41:29;;;;;;;;;;;8.10;99.90;;;;;;5075850;28;19924;-60
2022/03/14 08:43:54;;;;;;;;;;;8.10;99.90;;;;;;5079007;28;20258;-60
2022/03/14 08:46:20;;;;;;;;;;;8.10;99.90;;;;;;5095432;28;19931;-61
2022/03/14 08:48:46;;;;;;;;;;;8.10;99.90;;;;;;5094552;28;20353;-61
2022/03/14 08:51:11;;;;;;;;;;;8.10;99.90;;;;;;5095494;28;19924;-61
2022/03/14 08:53:37;;;;;;;;;;;8.20;99.90;;;;;;5091422;28;19924;-61
2022/03/14 08:56:08;;;;;;;;;;;8.10;99.90;;;;;;5095308;28;19924;-60
2022/03/14 08:58:33;;;;;;;;;;;8.20;99.90;;;;;;5095174;28;19931;-60
2022/03/14 09:01:00;;;;;;;;;;;8.20;99.90;;;;;;5090669;28;19928;-60
2022/03/14 09:03:26;;;;;;;;;;;8.20;99.90;;;;;;5085816;28;19985;-60
2022/03/14 09:05:55;;;;;;;;;;;8.20;99.90;;;;;;5085882;28;19932;-61
2022/03/14 09:08:21;;;;;;;;;;;8.20;99.90;;;;;;5084002;28;19932;-61
2022/03/14 09:10:46;;;;;;;;;;;8.30;99.90;;;;;;5087454;28;19924;-60
2022/03/14 09:13:12;;;;;;;;;;;8.30;99.90;;;;;;5095592;28;19924;-60
2022/03/14 09:15:38;;;;;;;;;;;8.30;99.90;;;;;;5093822;28;19974;-60
2022/03/14 09:18:04;;;;;;;;;;;8.30;99.90;;;;;;5094878;28;19928;-60
2022/03/14 09:20:30;;;;;;;;;;;8.30;99.90;;;;;;5094862;28;19927;-60
2022/03/14 09:22:56;;;;;;;;;;;8.30;99.90;;;;;;5094553;28;19928;-60
2022/03/14 09:25:22;;;;;;;;;;;8.40;99.90;;;;;;5088766;28;19931;-61
2022/03/14 09:27:49;;;;;;;;;;;8.40;99.90;;;;;;5093717;28;19924;-60
2022/03/14 09:30:15;;;;;;;;;;;8.40;99.90;;;;;;5085960;28;20398;-60
2022/03/14 09:32:42;;;;;;;;;;;8.40;99.90;;;;;;5083814;28;20059;-61
2022/03/14 09:35:09;;;;;;;;;;;8.40;99.90;;;;;;5089731;28;19973;-61
2022/03/14 09:37:35;;;;;;;;;;;8.40;99.90;;;;;;5082083;28;19924;-61
2022/03/14 09:40:03;;;;;;;;;;;8.50;99.90;;;;;;5072682;28;20500;-60
2022/03/14 09:42:29;;;;;;;;;;;8.50;99.90;;;;;;5078436;28;19931;-61
2022/03/14 09:44:55;;;;;;;;;;;8.50;99.90;;;;;;5093919;28;19924;-61
2022/03/14 09:47:23;;;;;;;;;;;8.50;99.90;;;;;;5093108;28;20306;-60
2022/03/14 09:49:50;;;;;;;;;;;8.50;99.90;;;;;;5092607;28;20382;-60
2022/03/14 09:52:16;;;;;;;;;;;8.50;99.90;;;;;;5094048;28;19925;-61
2022/03/14 09:54:42;;;;;;;;;;;8.50;99.90;;;;;;5077348;28;19978;-61
2022/03/14 09:57:07;;;;;;;;;;;8.60;99.90;;;;;;5072566;28;20402;-61
2022/03/14 09:59:35;;;;;;;;;;;8.60;99.90;;;;;;5072791;28;20271;-61
2022/03/14 10:02:01;;;;;;;;;;;8.60;99.90;;;;;;5093267;28;19924;-60
2022/03/14 10:04:26;;;;;;;;;;;8.60;99.90;;;;;;5093779;28;19924;-61
2022/03/14 10:06:52;;;;;;;;;;;8.60;99.90;;;;;;5094491;28;19931;-61
2022/03/14 10:09:18;;;;;;;;;;;8.70;99.90;;;;;;5093512;28;20011;-60
2022/03/14 10:11:44;;;;;;;;;;;8.60;99.90;;;;;;5107525;28;20429;-61
2022/03/14 10:14:11;;;;;;;;;;;8.60;99.90;;;;;;5114912;28;19924;-61
2022/03/14 10:16:37;;;;;;;;;;;8.50;99.90;;;;;;5114317;28;19947;-60
2022/03/14 10:19:05;;;;;;;;;;;8.60;99.90;;;;;;5098937;28;20394;-61
2022/03/14 10:21:32;;;;;;;;;;;8.60;99.90;;;;;;5094244;28;19950;-60
2022/03/14 10:23:59;;;;;;;;;;;8.60;99.90;;;;;;5092165;28;20320;-61
2022/03/14 10:26:25;;;;;;;;;;;8.50;99.90;;;;;;5089673;28;19924;-60
2022/03/14 10:28:57;;;;;;;;;;;8.60;99.90;;;;;;5093668;28;19924;-61
2022/03/14 10:31:31;;;;;;;;;;;8.50;99.90;;;;;;5093534;28;19928;-60
2022/03/14 10:34:05;;;;;;;;;;;8.50;99.90;;;;;;5077227;28;19927;-60
2022/03/14 10:36:43;;;;;;;;;;;8.50;99.90;;;;;;5092988;28;19924;-60
2022/03/14 10:39:14;;;;;;;;;;;8.50;99.90;;;;;;5091413;28;20281;-60
2022/03/14 10:41:40;;;;;;;;;;;8.50;99.90;;;;;;5092697;28;19924;-60
2022/03/14 10:44:06;;;;;;;;;;;8.60;99.90;;;;;;5092259;28;19926;-60
2022/03/14 10:46:32;;;;;;;;;;;8.60;99.90;;;;;;5092586;28;19972;-60
2022/03/14 10:48:58;;;;;;;;;;;8.60;99.90;;;;;;5093127;28;20495;-60
2022/03/14 10:51:24;;;;;;;;;;;8.60;99.90;;;;;;5093377;28;19924;-60
2022/03/14 10:53:50;;;;;;;;;;;8.60;99.90;;;;;;5082408;28;20328;-60
2022/03/14 10:56:17;;;;;;;;;;;8.70;99.90;;;;;;5082510;28;19968;-60
2022/03/14 10:58:43;;;;;;;;;;;8.70;99.90;;;;;;5080896;28;19924;-60
2022/03/14 11:01:11;;;;;;;;;;;8.70;99.90;;;;;;5082615;28;19924;-61
2022/03/14 11:03:39;;;;;;;;;;;8.70;99.90;;;;;;5085809;28;19930;-60
2022/03/14 11:06:06;;;;;;;;;;;8.70;99.90;;;;;;5082691;28;19928;-61
2022/03/14 11:08:36;;;;;;;;;;;8.70;99.90;;;;;;5079677;28;19979;-61
2022/03/14 11:11:05;;;;;;;;;;;8.60;99.90;;;;;;5086867;28;22278;-60
2022/03/14 11:13:31;;;;;;;;;;;8.70;99.90;;;;;;5093630;28;19924;-60
2022/03/14 11:15:58;;;;;;;;;;;8.60;99.90;;;;;;5092124;28;19939;-61
2022/03/14 11:18:25;;;;;;;;;;;8.60;99.90;;;;;;5092396;28;19971;-61
2022/03/14 11:20:52;;;;;;;;;;;8.50;99.90;;;;;;5091086;28;19935;-61
2022/03/14 11:23:18;;;;;;;;;;;8.50;99.90;;;;;;5092277;28;19978;-60
2022/03/14 11:25:44;;;;;;;;;;;8.50;99.90;;;;;;5089159;28;19984;-60
2022/03/14 11:28:17;;;;;;;;;;;8.50;99.90;;;;;;5092541;28;20363;-60
2022/03/14 11:30:47;;;;;;;;;;;8.50;99.90;;;;;;5071821;28;19948;-60
2022/03/14 11:33:14;;;;;;;;;;;8.50;99.90;;;;;;5072988;28;19920;-60
2022/03/14 11:35:41;;;;;;;;;;;8.50;99.90;;;;;;5091926;28;19977;-60
2022/03/14 11:38:08;;;;;;;;;;;8.50;99.90;;;;;;5092616;28;19919;-60
2022/03/14 11:40:35;;;;;;;;;;;8.60;99.90;;;;;;5091875;28;20005;-60
2022/03/14 11:43:01;;;;;;;;;;;8.60;99.90;;;;;;5092703;28;20061;-61
2022/03/14 11:45:27;;;;;;;;;;;8.60;99.90;;;;;;5092796;28;19985;-60
2022/03/14 11:47:53;;;;;;;;;;;8.70;99.90;;;;;;5092838;28;19974;-60
2022/03/14 11:50:20;;;;;;;;;;;8.60;99.90;;;;;;5092245;28;19963;-60
2022/03/14 11:52:48;;;;;;;;;;;8.70;99.90;;;;;;5092666;28;19928;-60
2022/03/14 11:55:15;;;;;;;;;;;8.70;99.90;;;;;;5077155;28;19930;-60
2022/03/14 11:57:42;;;;;;;;;;;8.70;99.90;;;;;;5091220;28;19928;-60
2022/03/14 12:00:25;;;;;;;;;;;8.70;99.90;;;;;;5081940;28;19924;-60
2022/03/14 12:02:53;;;;;;;;;;;8.70;99.90;;;;;;5093052;28;19931;-60
2022/03/14 12:05:22;;;;;;;;;;;8.70;99.90;;;;;;5086829;28;19925;-60
2022/03/14 12:07:47;;;;;;;;;;;8.80;99.90;;;;;;5070474;28;19928;-60
2022/03/14 12:10:30;;;;;;;;;;;8.80;99.90;;;;;;5081872;28;19924;-60
2022/03/14 12:12:58;;;;;;;;;;;8.80;99.90;;;;;;5093740;28;19924;-60
2022/03/14 12:15:37;;;;;;;;;;;8.80;99.90;;;;;;5096013;28;19924;-60
2022/03/14 12:18:22;;;;;;;;;;;8.80;99.90;;;;;;5077334;28;19924;-60
2022/03/14 12:20:49;;;;;;;;;;;8.80;99.90;;;;;;5096791;28;19924;-60
2022/03/14 12:23:22;;;;;;;;;;;8.80;99.90;;;;;;5095275;28;19932;-60
2022/03/14 12:25:48;;;;;;;;;;;8.80;99.90;;;;;;5093854;28;20382;-60
2022/03/14 12:28:27;;;;;;;;;;;8.80;99.90;;;;;;5095579;28;19947;-60
2022/03/14 12:31:11;;;;;;;;;;;8.80;99.90;;;;;;5090989;28;20287;-61
2022/03/14 12:33:38;;;;;;;;;;;8.80;99.90;;;;;;5092020;28;20464;-60
2022/03/14 12:36:19;;;;;;;;;;;8.80;99.90;;;;;;5095554;28;19932;-60
2022/03/14 12:39:03;;;;;;;;;;;8.90;99.90;;;;;;5094145;28;19924;-60
2022/03/14 12:41:29;;;;;;;;;;;8.80;99.90;;;;;;5096149;28;19925;-60
2022/03/14 12:43:55;;;;;;;;;;;8.80;99.90;;;;;;5095455;28;19931;-60
2022/03/14 12:46:21;;;;;;;;;;;8.80;99.90;;;;;;5095551;28;20374;-60
2022/03/14 12:48:51;;;;;;;;;;;8.90;99.90;;;;;;5095521;28;19924;-60
2022/03/14 12:51:24;;;;;;;;;;;8.90;99.90;;;;;;5094485;28;20312;-60
2022/03/14 12:53:50;;;;;;;;;;;8.90;99.90;;;;;;5086470;28;19927;-60
2022/03/14 12:56:17;;;;;;;;;;;8.90;99.90;;;;;;5074558;28;19951;-60
2022/03/14 12:58:51;;;;;;;;;;;8.90;99.90;;;;;;5091701;28;20394;-60
2022/03/14 13:01:18;;;;;;;;;;;8.90;99.90;;;;;;5093761;28;19970;-60
2022/03/14 13:03:45;;;;;;;;;;;8.90;99.90;;;;;;5086356;28;19946;-60
2022/03/14 13:06:10;;;;;;;;;;;8.80;99.90;;;;;;5080356;28;19920;-60
2022/03/14 13:08:47;;;;;;;;;;;8.80;99.90;;;;;;5094401;28;20431;-60
2022/03/14 13:11:13;;;;;;;;;;;8.90;99.90;;;;;;5098163;28;20026;-60
2022/03/14 13:13:39;;;;;;;;;;;8.80;99.90;;;;;;5095239;28;20007;-60
2022/03/14 13:16:05;;;;;;;;;;;8.90;99.90;;;;;;5093498;28;20380;-60
2022/03/14 13:18:33;;;;;;;;;;;8.80;99.90;;;;;;5093871;28;19924;-60
2022/03/14 13:20:58;;;;;;;;;;;8.90;99.90;;;;;;5092085;28;19959;-60
2022/03/14 13:23:26;;;;;;;;;;;8.90;99.90;;;;;;5081829;28;19963;-60
2022/03/14 13:25:51;;;;;;;;;;;8.90;99.90;;;;;;5093858;28;19924;-60
2022/03/14 13:28:25;;;;;;;;;;;8.90;99.90;;;;;;5093611;28;20318;-60
2022/03/14 13:30:51;;;;;;;;;;;8.80;99.90;;;;;;5093908;28;19963;-60
2022/03/14 13:33:18;;;;;;;;;;;8.80;99.90;;;;;;5094058;28;19975;-60
2022/03/14 13:35:44;;;;;;;;;;;8.80;99.90;;;;;;5093878;28;19928;-60
2022/03/14 13:38:10;;;;;;;;;;;8.80;99.90;;;;;;5094689;28;19924;-61
2022/03/14 13:40:44;;;;;;;;;;;8.80;99.90;;;;;;5080563;28;19950;-60
2022/03/14 13:43:10;;;;;;;;;;;8.90;99.90;;;;;;5092139;28;19924;-60
2022/03/14 13:45:35;;;;;;;;;;;8.80;99.90;;;;;;5094795;28;19935;-60
2022/03/14 13:48:01;;;;;;;;;;;8.90;99.90;;;;;;5094390;28;19928;-60
2022/03/14 13:50:28;;;;;;;;;;;8.90;99.90;;;;;;5091180;28;19984;-60
2022/03/14 13:52:54;;;;;;;;;;;8.90;99.90;;;;;;5095040;28;19924;-60
2022/03/14 13:55:20;;;;;;;;;;;9.00;99.90;;;;;;5094435;28;19931;-60
2022/03/14 13:57:45;;;;;;;;;;;8.90;99.90;;;;;;5093397;28;19932;-60
2022/03/14 14:00:12;;;;;;;;;;;9.00;99.90;;;;;;5093387;28;19920;-60
2022/03/14 14:02:39;;;;;;;;;;;9.00;99.90;;;;;;5083045;28;19924;-60
2022/03/14 14:05:07;;;;;;;;;;;9.10;99.90;;;;;;5071495;28;20041;-60
2022/03/14 14:07:33;;;;;;;;;;;9.20;99.90;;;;;;5073033;28;19931;-59
2022/03/14 14:09:59;;;;;;;;;;;9.20;99.90;;;;;;5094169;28;19924;-59
2022/03/14 14:12:31;;;;;;;;;;;9.30;99.90;;;;;;5095335;28;20457;-59
2022/03/14 14:15:05;;;;;;;;;;;9.40;99.90;;;;;;5094341;28;19993;-59
2022/03/14 14:17:31;;;;;;;;;;;9.50;99.90;;;;;;5074841;28;19924;-59
2022/03/14 14:20:03;;;;;;;;;;;9.50;99.90;;;;;;5093567;28;19928;-60
2022/03/14 14:22:33;;;;;;;;;;;9.50;99.90;;;;;;5093195;28;19931;-60
2022/03/14 14:24:59;;;;;;;;;;;9.70;99.90;;;;;;5093258;28;19939;-60
2022/03/14 14:27:26;;;;;;;;;;;9.60;99.90;;;;;;5090788;28;19928;-60
2022/03/14 14:29:53;;;;;;;;;;;9.70;99.90;;;;;;5089661;28;20696;-60